createdAt,value
2018-09-15T00:01:23.149Z,-76
2018-09-15T00:03:52.319Z,-75
2018-09-15T00:06:21.519Z,-75
2018-09-15T00:08:50.514Z,-77
2018-09-15T00:11:19.760Z,-76
2018-09-15T00:13:49.020Z,-77
2018-09-15T00:16:18.001Z,-77
2018-09-15T00:18:46.935Z,-76
2018-09-15T00:21:16.184Z,-77
2018-09-15T00:23:52.236Z,-76
2018-09-15T00:26:21.423Z,-77
2018-09-15T00:28:50.694Z,-77
2018-09-15T00:31:19.961Z,-77
2018-09-15T00:33:48.951Z,-79
2018-09-15T00:36:18.168Z,-78
2018-09-15T00:38:47.193Z,-77
2018-09-15T00:41:16.337Z,-77
2018-09-15T00:43:45.565Z,-77
2018-09-15T00:46:14.816Z,-76
2018-09-15T00:48:44.041Z,-77
2018-09-15T00:51:13.268Z,-77
2018-09-15T00:53:42.436Z,-77
2018-09-15T00:56:11.686Z,-77
2018-09-15T00:58:40.909Z,-76
2018-09-15T01:01:09.851Z,-76
2018-09-15T01:03:39.083Z,-76
2018-09-15T01:06:08.338Z,-79
2018-09-15T01:08:37.631Z,-77
2018-09-15T01:11:06.572Z,-77
2018-09-15T01:13:35.786Z,-77
2018-09-15T01:16:05.021Z,-78
2018-09-15T01:18:34.295Z,-77
2018-09-15T01:21:03.471Z,-75
2018-09-15T01:23:32.682Z,-76
2018-09-15T01:26:01.752Z,-76
2018-09-15T01:28:30.946Z,-77
2018-09-15T01:31:00.174Z,-76
2018-09-15T01:33:29.178Z,-77
2018-09-15T01:35:58.368Z,-76
2018-09-15T01:38:27.356Z,-75
2018-09-15T01:40:56.652Z,-76
2018-09-15T01:43:25.859Z,-78
2018-09-15T01:46:01.119Z,-80
2018-09-15T01:48:30.312Z,-81
2018-09-15T01:50:59.496Z,-81
2018-09-15T01:53:28.410Z,-81
2018-09-15T01:55:57.644Z,-81
2018-09-15T01:58:26.803Z,-81
2018-09-15T02:00:57.100Z,-81
2018-09-15T02:03:27.768Z,-80
2018-09-15T02:05:57.026Z,-81
2018-09-15T02:08:25.979Z,-81
2018-09-15T02:10:54.918Z,-80
2018-09-15T02:13:24.486Z,-80
2018-09-15T02:15:53.643Z,-80
2018-09-15T02:18:22.853Z,-80
2018-09-15T02:20:51.785Z,-80
2018-09-15T02:23:20.685Z,-80
2018-09-15T02:25:49.877Z,-80
2018-09-15T02:28:19.014Z,-80
2018-09-15T02:30:48.191Z,-81
2018-09-15T02:33:17.137Z,-81
2018-09-15T02:35:46.080Z,-80
2018-09-15T02:38:15.283Z,-81
2018-09-15T02:40:44.476Z,-81
2018-09-15T02:43:13.597Z,-80
2018-09-15T02:45:42.919Z,-80
2018-09-15T02:48:11.890Z,-81
2018-09-15T02:50:41.297Z,-81
2018-09-15T02:53:10.495Z,-81
2018-09-15T02:55:39.398Z,-81
2018-09-15T02:58:08.568Z,-80
2018-09-15T03:00:37.737Z,-81
2018-09-15T03:03:06.769Z,-80
2018-09-15T03:05:35.915Z,-80
2018-09-15T03:08:04.876Z,-80
2018-09-15T03:10:34.029Z,-80
2018-09-15T03:13:02.959Z,-81
2018-09-15T03:15:32.173Z,-81
2018-09-15T03:18:01.441Z,-81
2018-09-15T03:20:30.668Z,-81
2018-09-15T03:22:59.790Z,-81
2018-09-15T03:25:28.974Z,-81
2018-09-15T03:27:58.160Z,-81
2018-09-15T03:30:27.324Z,-81
2018-09-15T03:32:56.214Z,-81
2018-09-15T03:35:25.359Z,-81
2018-09-15T03:37:54.506Z,-81
2018-09-15T03:40:23.670Z,-81
2018-09-15T03:42:52.639Z,-81
2018-09-15T03:45:21.798Z,-81
2018-09-15T03:47:50.702Z,-80
2018-09-15T03:50:19.660Z,-81
2018-09-15T03:52:48.772Z,-81
2018-09-15T03:55:17.914Z,-81
2018-09-15T03:57:47.092Z,-84
2018-09-15T04:00:16.328Z,-80
2018-09-15T04:02:45.416Z,-79
2018-09-15T04:05:14.334Z,-79
2018-09-15T04:07:43.529Z,-80
2018-09-15T04:10:12.685Z,-79
2018-09-15T04:12:41.623Z,-79
2018-09-15T04:15:10.762Z,-80
2018-09-15T04:17:39.711Z,-79
2018-09-15T04:20:08.952Z,-79
2018-09-15T04:22:37.879Z,-79
2018-09-15T04:25:06.861Z,-80
2018-09-15T04:27:36.058Z,-80
2018-09-15T04:30:05.875Z,-80
2018-09-15T04:32:35.207Z,-80
2018-09-15T04:35:04.456Z,-79
2018-09-15T04:37:33.687Z,-80
2018-09-15T04:40:02.580Z,-80
2018-09-15T04:42:31.704Z,-80
2018-09-15T04:45:00.925Z,-80
2018-09-15T04:47:30.058Z,-80
2018-09-15T04:49:59.250Z,-80
2018-09-15T04:52:28.494Z,-80
2018-09-15T04:54:57.474Z,-80
2018-09-15T04:57:26.402Z,-80
2018-09-15T04:59:55.595Z,-80
2018-09-15T05:02:24.760Z,-80
2018-09-15T05:04:53.904Z,-80
2018-09-15T05:07:22.851Z,-79
2018-09-15T05:09:52.047Z,-80
2018-09-15T05:12:20.983Z,-79
2018-09-15T05:14:50.216Z,-80
2018-09-15T05:17:19.271Z,-80
2018-09-15T05:19:48.431Z,-80
2018-09-15T05:22:17.628Z,-79
2018-09-15T05:24:46.766Z,-79
2018-09-15T05:27:15.952Z,-79
2018-09-15T05:29:44.901Z,-80
2018-09-15T05:32:13.858Z,-80
2018-09-15T05:34:42.780Z,-79
2018-09-15T05:37:11.939Z,-79
2018-09-15T05:39:41.070Z,-80
2018-09-15T05:42:10.291Z,-79
2018-09-15T05:44:39.256Z,-79
2018-09-15T05:47:08.149Z,-79
2018-09-15T05:49:37.309Z,-80
2018-09-15T05:52:06.509Z,-80
2018-09-15T05:54:35.700Z,-79
2018-09-15T05:57:04.888Z,-79
2018-09-15T05:59:34.048Z,-79
2018-09-15T06:02:03.227Z,-79
2018-09-15T06:04:32.378Z,-80
2018-09-15T06:07:01.497Z,-80
2018-09-15T06:09:30.412Z,-79
2018-09-15T06:11:59.583Z,-80
2018-09-15T06:14:28.534Z,-80
2018-09-15T06:16:57.695Z,-79
2018-09-15T06:19:26.829Z,-81
2018-09-15T06:21:56.786Z,-80
2018-09-15T06:24:26.022Z,-80
2018-09-15T06:26:54.903Z,-80
2018-09-15T06:29:24.080Z,-80
2018-09-15T06:31:53.271Z,-80
2018-09-15T06:34:22.195Z,-80
2018-09-15T06:36:51.347Z,-80
2018-09-15T06:39:20.294Z,-80
2018-09-15T06:41:49.219Z,-80
2018-09-15T06:44:18.365Z,-80
2018-09-15T06:46:47.576Z,-80
2018-09-15T06:49:16.507Z,-81
2018-09-15T06:51:45.659Z,-81
2018-09-15T06:54:14.842Z,-80
2018-09-15T06:56:44.013Z,-81
2018-09-15T06:59:13.306Z,-80
2018-09-15T07:01:42.576Z,-80
2018-09-15T07:04:12.881Z,-80
2018-09-15T07:06:42.447Z,-80
2018-09-15T07:09:13.697Z,-80
2018-09-15T07:11:42.649Z,-80
2018-09-15T07:14:11.932Z,-80
2018-09-15T07:16:40.919Z,-79
2018-09-15T07:19:10.153Z,-80
2018-09-15T07:21:39.327Z,-80
2018-09-15T07:24:08.494Z,-80
2018-09-15T07:26:37.732Z,-80
2018-09-15T07:29:06.996Z,-80
2018-09-15T07:31:36.264Z,-79
2018-09-15T07:34:05.392Z,-80
2018-09-15T07:36:34.575Z,-80
2018-09-15T07:39:04.623Z,-79
2018-09-15T07:41:33.851Z,-79
2018-09-15T07:44:02.985Z,-80
2018-09-15T07:46:31.991Z,-80
2018-09-15T07:49:01.142Z,-81
2018-09-15T07:51:30.432Z,-81
2018-09-15T07:53:59.695Z,-81
2018-09-15T07:56:28.870Z,-81
2018-09-15T07:58:57.876Z,-81
2018-09-15T08:01:27.031Z,-80
2018-09-15T08:03:56.157Z,-80
2018-09-15T08:06:25.375Z,-81
2018-09-15T08:08:54.530Z,-80
2018-09-15T08:11:23.705Z,-80
2018-09-15T08:13:52.656Z,-79
2018-09-15T08:16:21.550Z,-81
2018-09-15T08:18:50.658Z,-81
2018-09-15T08:21:19.799Z,-81
2018-09-15T08:23:48.923Z,-81
2018-09-15T08:26:18.153Z,-82
2018-09-15T08:28:47.285Z,-81
2018-09-15T08:31:16.458Z,-81
2018-09-15T08:33:45.601Z,-81
2018-09-15T08:36:14.763Z,-80
2018-09-15T08:38:43.944Z,-80
2018-09-15T08:41:12.902Z,-80
2018-09-15T08:43:41.831Z,-80
2018-09-15T08:46:11.085Z,-81
2018-09-15T08:48:40.232Z,-82
2018-09-15T08:51:09.138Z,-81
2018-09-15T08:53:38.342Z,-81
2018-09-15T08:56:07.555Z,-81
2018-09-15T08:58:36.650Z,-81
2018-09-15T09:01:05.959Z,-81
2018-09-15T09:03:35.077Z,-80
2018-09-15T09:06:04.231Z,-81
2018-09-15T09:08:33.395Z,-81
2018-09-15T09:11:02.502Z,-81
2018-09-15T09:13:31.919Z,-80
2018-09-15T09:16:01.070Z,-81
2018-09-15T09:18:30.209Z,-81
2018-09-15T09:20:59.380Z,-81
2018-09-15T09:23:28.388Z,-81
2018-09-15T09:25:57.462Z,-82
2018-09-15T09:28:26.526Z,-81
2018-09-15T09:30:55.711Z,-81
2018-09-15T09:33:24.656Z,-81
2018-09-15T09:35:53.606Z,-81
2018-09-15T09:38:22.918Z,-80
2018-09-15T09:40:52.020Z,-81
2018-09-15T09:43:20.957Z,-81
2018-09-15T09:45:49.834Z,-80
2018-09-15T09:48:19.078Z,-81
2018-09-15T09:50:48.343Z,-81
2018-09-15T09:53:17.514Z,-80
2018-09-15T09:55:46.664Z,-80
2018-09-15T09:58:15.822Z,-81
2018-09-15T10:00:50.173Z,-81
2018-09-15T10:03:19.368Z,-80
2018-09-15T10:05:48.284Z,-81
2018-09-15T10:08:17.498Z,-81
2018-09-15T10:10:46.708Z,-80
2018-09-15T10:13:15.649Z,-80
2018-09-15T10:15:44.892Z,-80
2018-09-15T10:18:14.105Z,-81
2018-09-15T10:20:43.478Z,-81
2018-09-15T10:23:12.819Z,-80
2018-09-15T10:25:41.939Z,-81
2018-09-15T10:28:11.105Z,-81
2018-09-15T10:30:40.218Z,-81
2018-09-15T10:33:09.399Z,-81
2018-09-15T10:35:38.712Z,-81
2018-09-15T10:38:07.671Z,-81
2018-09-15T10:40:36.639Z,-80
2018-09-15T10:43:05.639Z,-79
2018-09-15T10:45:34.785Z,-80
2018-09-15T10:48:03.940Z,-81
2018-09-15T10:50:33.274Z,-80
2018-09-15T10:53:02.545Z,-80
2018-09-15T10:55:31.909Z,-81
2018-09-15T10:58:00.851Z,-81
2018-09-15T11:00:30.018Z,-81
2018-09-15T11:02:59.251Z,-80
2018-09-15T11:05:28.266Z,-80
2018-09-15T11:07:57.151Z,-81
2018-09-15T11:10:26.112Z,-80
2018-09-15T11:12:55.045Z,-81
2018-09-15T11:15:23.967Z,-80
2018-09-15T11:17:52.876Z,-79
2018-09-15T11:20:22.045Z,-81
2018-09-15T11:22:51.304Z,-81
2018-09-15T11:25:20.439Z,-81
2018-09-15T11:27:49.588Z,-81
2018-09-15T11:30:18.504Z,-81
2018-09-15T11:32:47.756Z,-82
2018-09-15T11:35:16.766Z,-80
2018-09-15T11:37:45.927Z,-81
2018-09-15T11:40:14.881Z,-80
2018-09-15T11:42:44.141Z,-81
2018-09-15T11:45:13.057Z,-80
2018-09-15T11:47:42.218Z,-81
2018-09-15T11:50:11.149Z,-81
2018-09-15T11:52:40.254Z,-81
2018-09-15T11:55:09.130Z,-81
2018-09-15T11:57:38.316Z,-81
2018-09-15T12:00:07.836Z,-81
2018-09-15T12:02:36.951Z,-82
2018-09-15T12:05:06.147Z,-80
2018-09-15T12:07:35.321Z,-81
2018-09-15T12:10:04.630Z,-80
2018-09-15T12:12:33.881Z,-80
2018-09-15T12:15:06.754Z,-80
2018-09-15T12:17:35.690Z,-81
2018-09-15T12:20:04.754Z,-80
2018-09-15T12:22:33.737Z,-81
2018-09-15T12:25:02.874Z,-81
2018-09-15T12:27:32.236Z,-81
2018-09-15T12:30:01.379Z,-81
2018-09-15T12:32:30.657Z,-81
2018-09-15T12:35:00.655Z,-81
2018-09-15T12:37:29.545Z,-80
2018-09-15T12:39:58.716Z,-80
2018-09-15T12:42:27.904Z,-81
2018-09-15T12:44:57.166Z,-81
2018-09-15T12:47:26.342Z,-80
2018-09-15T12:49:55.668Z,-81
2018-09-15T12:52:24.910Z,-81
2018-09-15T12:54:53.867Z,-82
2018-09-15T12:57:23.034Z,-80
2018-09-15T12:59:52.191Z,-81
2018-09-15T13:02:21.343Z,-82
2018-09-15T13:04:50.559Z,-82
2018-09-15T13:07:19.758Z,-81
2018-09-15T13:09:48.733Z,-80
2018-09-15T13:12:17.888Z,-81
2018-09-15T13:14:47.094Z,-79
2018-09-15T13:17:16.014Z,-78
2018-09-15T13:19:45.370Z,-81
2018-09-15T13:22:14.473Z,-81
2018-09-15T13:24:43.670Z,-81
2018-09-15T13:27:12.809Z,-81
2018-09-15T13:29:42.042Z,-80
2018-09-15T13:32:11.256Z,-80
2018-09-15T13:34:40.213Z,-80
2018-09-15T13:37:09.405Z,-80
2018-09-15T13:39:38.625Z,-79
2018-09-15T13:42:07.739Z,-85
2018-09-15T13:44:36.720Z,-84
2018-09-15T13:47:05.981Z,-84
2018-09-15T13:49:35.345Z,-84
2018-09-15T13:52:04.507Z,-84
2018-09-15T13:54:33.716Z,-84
2018-09-15T13:57:02.930Z,-83
2018-09-15T13:59:32.102Z,-84
2018-09-15T14:02:01.265Z,-83
2018-09-15T14:04:30.324Z,-82
2018-09-15T14:06:59.221Z,-84
2018-09-15T14:09:28.422Z,-84
2018-09-15T14:11:57.443Z,-84
2018-09-15T14:14:26.411Z,-84
2018-09-15T14:16:55.643Z,-83
2018-09-15T14:19:24.848Z,-85
2018-09-15T14:21:54.023Z,-83
2018-09-15T14:24:23.255Z,-84
2018-09-15T14:26:52.694Z,-84
2018-09-15T14:29:21.923Z,-84
2018-09-15T14:31:51.129Z,-84
2018-09-15T14:34:20.100Z,-84
2018-09-15T14:36:49.094Z,-84
2018-09-15T14:39:18.327Z,-84
2018-09-15T14:41:47.577Z,-84
2018-09-15T14:44:16.961Z,-84
2018-09-15T14:46:46.099Z,-84
2018-09-15T14:49:16.456Z,-85
2018-09-15T14:51:46.257Z,-85
2018-09-15T14:54:15.460Z,-84
2018-09-15T14:56:44.714Z,-84
2018-09-15T14:59:14.529Z,-84
2018-09-15T15:01:43.763Z,-84
2018-09-15T15:04:12.646Z,-84
2018-09-15T15:06:41.803Z,-84
2018-09-15T15:09:11.223Z,-84
2018-09-15T15:11:40.329Z,-84
2018-09-15T15:14:09.954Z,-84
2018-09-15T15:16:39.013Z,-84
2018-09-15T15:19:08.729Z,-84
2018-09-15T15:21:37.863Z,-84
2018-09-15T15:24:07.046Z,-84
2018-09-15T15:26:36.384Z,-84
2018-09-15T15:29:05.738Z,-84
2018-09-15T15:31:34.963Z,-84
2018-09-15T15:34:04.389Z,-83
2018-09-15T15:36:33.590Z,-83
2018-09-15T15:39:02.489Z,-83
2018-09-15T15:41:31.805Z,-83
2018-09-15T15:44:00.787Z,-83
2018-09-15T15:46:30.032Z,-84
2018-09-15T15:48:59.285Z,-84
2018-09-15T15:51:28.544Z,-84
2018-09-15T15:53:57.386Z,-84
2018-09-15T15:56:26.573Z,-84
2018-09-15T15:58:55.910Z,-84
2018-09-15T16:01:25.003Z,-84
2018-09-15T16:03:54.008Z,-84
2018-09-15T16:06:22.972Z,-84
2018-09-15T16:08:52.579Z,-84
2018-09-15T16:11:22.319Z,-84
2018-09-15T16:13:51.606Z,-84
2018-09-15T16:16:20.991Z,-84
2018-09-15T16:18:50.188Z,-84
2018-09-15T16:21:19.431Z,-84
2018-09-15T16:23:48.614Z,-84
2018-09-15T16:26:17.847Z,-84
2018-09-15T16:28:47.030Z,-84
2018-09-15T16:31:16.169Z,-84
2018-09-15T16:33:45.351Z,-84
2018-09-15T16:36:14.462Z,-84
2018-09-15T16:38:43.378Z,-83
2018-09-15T16:41:12.575Z,-84
2018-09-15T16:43:41.597Z,-86
2018-09-15T16:46:10.816Z,-85
2018-09-15T16:48:40.032Z,-85
2018-09-15T16:51:08.989Z,-85
2018-09-15T16:53:38.155Z,-85
2018-09-15T16:56:07.510Z,-85
2018-09-15T16:58:37.902Z,-85
2018-09-15T17:01:07.204Z,-85
2018-09-15T17:03:36.123Z,-86
2018-09-15T17:06:12.125Z,-85
2018-09-15T17:08:41.148Z,-86
2018-09-15T17:11:10.301Z,-86
2018-09-15T17:13:39.496Z,-86
2018-09-15T17:16:08.675Z,-86
2018-09-15T17:18:37.841Z,-86
2018-09-15T17:21:07.013Z,-86
2018-09-15T17:23:36.109Z,-86
2018-09-15T17:26:05.284Z,-87
2018-09-15T17:28:34.512Z,-89
2018-09-15T17:31:03.680Z,-87
2018-09-15T17:33:33.010Z,-86
2018-09-15T17:36:02.207Z,-86
2018-09-15T17:38:31.158Z,-86
2018-09-15T17:41:00.384Z,-85
2018-09-15T17:43:29.620Z,-86
2018-09-15T17:45:58.578Z,-86
2018-09-15T17:48:27.831Z,-86
2018-09-15T17:50:57.043Z,-85
2018-09-15T17:53:26.521Z,-85
2018-09-15T17:55:55.625Z,-85
2018-09-15T17:58:24.937Z,-85
2018-09-15T18:00:54.324Z,-86
2018-09-15T18:03:23.625Z,-86
2018-09-15T18:05:52.718Z,-86
2018-09-15T18:08:22.018Z,-85
2018-09-15T18:10:51.292Z,-86
2018-09-15T18:13:20.548Z,-85
2018-09-15T18:15:49.585Z,-85
2018-09-15T18:18:18.947Z,-86
2018-09-15T18:20:48.176Z,-85
2018-09-15T18:23:17.510Z,-85
2018-09-15T18:25:46.819Z,-85
2018-09-15T18:28:16.148Z,-85
2018-09-15T18:30:45.175Z,-85
2018-09-15T18:33:14.456Z,-86
2018-09-15T18:35:43.880Z,-86
2018-09-15T18:38:13.008Z,-85
2018-09-15T18:40:42.336Z,-85
2018-09-15T18:43:11.405Z,-85
2018-09-15T18:45:40.622Z,-85
2018-09-15T18:48:09.932Z,-85
2018-09-15T18:50:39.320Z,-85
2018-09-15T18:53:08.612Z,-86
2018-09-15T18:55:37.883Z,-86
2018-09-15T18:58:07.242Z,-86
2018-09-15T19:00:36.755Z,-86
2018-09-15T19:03:05.844Z,-86
2018-09-15T19:05:34.852Z,-85
2018-09-15T19:08:04.077Z,-85
2018-09-15T19:10:33.075Z,-86
2018-09-15T19:13:02.115Z,-86
2018-09-15T19:15:31.165Z,-85
2018-09-15T19:18:00.528Z,-85
2018-09-15T19:20:29.797Z,-85
2018-09-15T19:22:59.109Z,-85
2018-09-15T19:25:28.422Z,-86
2018-09-15T19:27:57.732Z,-85
2018-09-15T19:30:27.064Z,-85
2018-09-15T19:32:56.172Z,-86
2018-09-15T19:35:25.428Z,-86
2018-09-15T19:37:54.740Z,-85
2018-09-15T19:40:24.155Z,-86
2018-09-15T19:42:53.080Z,-80
2018-09-15T19:45:22.245Z,-79
2018-09-15T19:47:51.182Z,-81
2018-09-15T19:50:20.310Z,-81
2018-09-15T19:52:49.418Z,-80
2018-09-15T19:55:18.485Z,-80
2018-09-15T19:57:47.639Z,-80
2018-09-15T20:00:16.800Z,-80
2018-09-15T20:02:45.906Z,-80
2018-09-15T20:05:14.908Z,-80
2018-09-15T20:07:44.120Z,-80
2018-09-15T20:10:13.035Z,-80
2018-09-15T20:12:42.165Z,-80
2018-09-15T20:15:22.342Z,-80
2018-09-15T20:17:50.343Z,-81
2018-09-15T20:20:18.189Z,-80
2018-09-15T20:22:47.531Z,-80
2018-09-15T20:25:16.723Z,-80
2018-09-15T20:27:46.235Z,-80
2018-09-15T20:30:15.360Z,-80
2018-09-15T20:32:44.653Z,-80
2018-09-15T20:35:13.847Z,-80
2018-09-15T20:37:42.896Z,-80
2018-09-15T20:40:12.051Z,-81
2018-09-15T20:42:41.107Z,-81
2018-09-15T20:45:10.309Z,-81
2018-09-15T20:47:39.794Z,-80
2018-09-15T20:50:08.831Z,-81
2018-09-15T20:52:38.133Z,-81
2018-09-15T20:55:07.843Z,-80
2018-09-15T20:57:36.894Z,-80
2018-09-15T21:00:07.859Z,-80
2018-09-15T21:02:36.863Z,-80
2018-09-15T21:05:06.531Z,-79
2018-09-15T21:07:35.698Z,-80
2018-09-15T21:10:04.722Z,-79
2018-09-15T21:12:33.993Z,-78
2018-09-15T21:15:02.881Z,-79
2018-09-15T21:17:32.035Z,-80
2018-09-15T21:20:01.166Z,-81
2018-09-15T21:22:30.367Z,-79
2018-09-15T21:24:59.547Z,-80
2018-09-15T21:27:28.712Z,-79
2018-09-15T21:29:57.876Z,-79
2018-09-15T21:32:26.814Z,-79
2018-09-15T21:34:56.420Z,-80
2018-09-15T21:37:25.601Z,-81
2018-09-15T21:39:54.798Z,-80
2018-09-15T21:42:24.200Z,-80
2018-09-15T21:44:53.130Z,-80
2018-09-15T21:47:22.118Z,-80
2018-09-15T21:49:51.288Z,-80
2018-09-15T21:52:20.501Z,-80
2018-09-15T21:54:49.658Z,-80
2018-09-15T21:57:18.937Z,-80
2018-09-15T21:59:48.077Z,-80
2018-09-15T22:02:17.292Z,-80
2018-09-15T22:04:46.493Z,-80
2018-09-15T22:07:15.677Z,-80
2018-09-15T22:09:44.920Z,-81
2018-09-15T22:12:14.114Z,-80
2018-09-15T22:14:43.042Z,-80
2018-09-15T22:17:12.240Z,-80
2018-09-15T22:19:41.161Z,-79
2018-09-15T22:22:10.389Z,-80
2018-09-15T22:24:39.531Z,-81
2018-09-15T22:27:08.497Z,-81
2018-09-15T22:29:37.629Z,-81
2018-09-15T22:32:07.027Z,-80
2018-09-15T22:34:36.305Z,-81
2018-09-15T22:37:05.315Z,-84
2018-09-15T22:39:34.511Z,-82
2018-09-15T22:42:03.679Z,-82
2018-09-15T22:44:32.843Z,-82
2018-09-15T22:47:01.762Z,-82
2018-09-15T22:49:30.720Z,-82
2018-09-15T22:51:59.905Z,-82
2018-09-15T22:54:28.896Z,-81
2018-09-15T22:56:58.091Z,-82
2018-09-15T22:59:27.310Z,-81
2018-09-15T23:01:56.521Z,-81
2018-09-15T23:04:25.698Z,-84
2018-09-15T23:06:54.675Z,-82
2018-09-15T23:09:23.845Z,-82
2018-09-15T23:11:52.741Z,-80
2018-09-15T23:14:21.988Z,-80
2018-09-15T23:16:50.935Z,-80
2018-09-15T23:19:19.823Z,-82
2018-09-15T23:21:49.210Z,-79
2018-09-15T23:24:19.008Z,-82
2018-09-15T23:26:48.183Z,-81
2018-09-15T23:29:17.418Z,-81
2018-09-15T23:31:46.585Z,-80
2018-09-15T23:34:15.702Z,-80
2018-09-15T23:36:44.851Z,-81
2018-09-15T23:39:14.115Z,-80
2018-09-15T23:41:43.068Z,-80
2018-09-15T23:44:12.335Z,-80
2018-09-15T23:46:41.650Z,-80
2018-09-15T23:49:10.765Z,-79
2018-09-15T23:51:39.895Z,-79
2018-09-15T23:54:09.063Z,-79
2018-09-15T23:56:38.007Z,-79
2018-09-15T23:59:07.323Z,-80
